Time;durP1;ratioP1;P1;durP2;ratioP2;P2;SDS_P1;SDS_P2;PMS_P1;PMS_P2;Temp;Humidity;BMP_temperature;BMP_pressure;BME280_temperature;BME280_humidity;BME280_pressure;Samples;Min_cycle;Max_cycle;Signal;HPM_P1;HPM_P2
2021/12/16 00:01:50;;;;;;;;;;;;;;;;;;5134697;27;19944;-83
2021/12/16 00:07:18;;;;;;;;;;;;;;;;;;5134709;27;20019;-83
2021/12/16 00:09:54;;;;;;;;;;;;;;;;;;5134599;27;19962;-82
2021/12/16 00:31:47;;;;;;;;;;;;;;;;;;5117543;27;19974;-83
2021/12/16 00:34:14;;;;;;;;;;;;;;;;;;5134713;27;19994;-83
2021/12/16 00:36:41;;;;;;;;;;;;;;;;;;5134200;27;20443;-82
2021/12/16 00:39:08;;;;;;;;;;;;;;;;;;5134768;27;19989;-82
2021/12/16 00:41:37;;;;;;;;;;;;;;;;;;5134082;27;20063;-82
2021/12/16 00:44:09;;;;;;;;;;;;;;;;;;5134399;27;19956;-82
2021/12/16 00:49:35;;;;;;;;;;;;;;;;;;5134444;27;19969;-83
2021/12/16 00:54:51;;;;;;;;;;;;;;;;;;5134260;27;20003;-83
2021/12/16 00:57:18;;;;;;;;;;;;;;;;;;5134542;27;20472;-83
2021/12/16 00:59:47;;;;;;;;;;;;;;;;;;5134417;27;19947;-83
2021/12/16 01:02:26;;;;;;;;;;;;;;;;;;5134300;27;19954;-83
2021/12/16 01:05:40;;;;;;;;;;;;;;;;;;5134467;27;19956;-83
2021/12/16 01:36:06;;;;;;;;;;;;;;;;;;5131650;28;19957;-83
2021/12/16 01:39:12;;;;;;;;;;;;;;;;;;5131518;28;19958;-83
2021/12/16 01:47:23;;;;;;;;;;;;;;;;;;5109510;27;20406;-83
2021/12/16 01:49:57;;;;;;;;;;;;;;;;;;5131502;28;19966;-83
2021/12/16 01:52:51;;;;;;;;;;;;;;;;;;5131400;28;19950;-83
2021/12/16 01:55:22;;;;;;;;;;;;;;;;;;5131072;28;19997;-83
2021/12/16 01:57:52;;;;;;;;;;;;;;;;;;5131094;28;19948;-83
2021/12/16 02:00:25;;;;;;;;;;;;;;;;;;5131308;28;19951;-83
2021/12/16 02:02:59;;;;;;;;;;;;;;;;;;5131122;28;19997;-83
2021/12/16 02:05:34;;;;;;;;;;;;;;;;;;5130854;27;19952;-83
2021/12/16 02:10:57;;;;;;;;;;;;;;;;;;5126647;27;19976;-82
2021/12/16 02:27:43;;;;;;;;;;;;;;;;;;5116975;28;19934;-83
2021/12/16 02:33:10;;;;;;;;;;;;;;;;;;5116490;27;19942;-83
2021/12/16 02:35:44;;;;;;;;;;;;;;;;;;5116515;28;19947;-83
2021/12/16 02:38:13;;;;;;;;;;;;;;;;;;5116854;28;20004;-82
2021/12/16 02:40:40;;;;;;;;;;;;;;;;;;5116181;28;20037;-82
2021/12/16 02:43:23;;;;;;;;;;;;;;;;;;5116543;28;20039;-82
2021/12/16 02:48:37;;;;;;;;;;;;;;;;;;5116444;28;19951;-83
2021/12/16 02:51:03;;;;;;;;;;;;;;;;;;5116510;28;19944;-83
2021/12/16 02:53:30;;;;;;;;;;;;;;;;;;5116289;28;20031;-83
2021/12/16 02:55:57;;;;;;;;;;;;;;;;;;5116436;28;19997;-82
2021/12/16 02:58:24;;;;;;;;;;;;;;;;;;5116468;28;20038;-83
2021/12/16 03:00:51;;;;;;;;;;;;;;;;;;5116273;28;20054;-82
2021/12/16 03:03:18;;;;;;;;;;;;;;;;;;5116076;28;20005;-83
2021/12/16 03:05:45;;;;;;;;;;;;;;;;;;5115990;28;19953;-83
2021/12/16 03:08:12;;;;;;;;;;;;;;;;;;5115972;28;20402;-83
2021/12/16 03:13:30;;;;;;;;;;;;;;;;;;5089380;28;19949;-82
2021/12/16 03:16:08;;;;;;;;;;;;;;;;;;5115205;28;19956;-82
2021/12/16 03:18:42;;;;;;;;;;;;;;;;;;5115942;28;20001;-82
2021/12/16 03:21:15;;;;;;;;;;;;;;;;;;5115756;28;20334;-83
2021/12/16 03:23:56;;;;;;;;;;;;;;;;;;5115725;28;20378;-83
2021/12/16 03:26:52;;;;;;;;;;;;;;;;;;5115846;28;20044;-82
2021/12/16 03:29:53;;;;;;;;;;;;;;;;;;5115509;28;19970;-83
2021/12/16 03:32:46;;;;;;;;;;;;;;;;;;5114614;28;19949;-83
2021/12/16 03:35:32;;;;;;;;;;;;;;;;;;5115543;28;19952;-83
2021/12/16 03:37:59;;;;;;;;;;;;;;;;;;5115723;28;20327;-83
2021/12/16 03:40:26;;;;;;;;;;;;;;;;;;5115574;28;20028;-83
2021/12/16 03:42:54;;;;;;;;;;;;;;;;;;5115482;28;19959;-83
2021/12/16 03:48:02;;;;;;;;;;;;;;;;;;5114144;28;19957;-83
2021/12/16 03:50:29;;;;;;;;;;;;;;;;;;5115346;28;20363;-83
2021/12/16 03:52:56;;;;;;;;;;;;;;;;;;5115257;28;20032;-82
2021/12/16 03:55:23;;;;;;;;;;;;;;;;;;5115145;28;20033;-83
2021/12/16 03:57:50;;;;;;;;;;;;;;;;;;5115076;28;20043;-83
2021/12/16 04:00:17;;;;;;;;;;;;;;;;;;5114888;28;20457;-83
2021/12/16 04:02:44;;;;;;;;;;;;;;;;;;5114817;28;20002;-83
2021/12/16 04:05:11;;;;;;;;;;;;;;;;;;5114984;28;20038;-83
2021/12/16 04:07:38;;;;;;;;;;;;;;;;;;5114888;28;20044;-83
2021/12/16 04:10:05;;;;;;;;;;;;;;;;;;5114542;28;20077;-83
2021/12/16 04:12:32;;;;;;;;;;;;;;;;;;5114616;28;20398;-83
2021/12/16 04:14:59;;;;;;;;;;;;;;;;;;5114687;28;19955;-82
2021/12/16 04:17:25;;;;;;;;;;;;;;;;;;5114534;28;20382;-82
2021/12/16 04:19:53;;;;;;;;;;;;;;;;;;5114702;28;20039;-83
2021/12/16 04:22:20;;;;;;;;;;;;;;;;;;5114972;28;20041;-83
2021/12/16 04:24:47;;;;;;;;;;;;;;;;;;5114518;28;19949;-83
2021/12/16 04:27:14;;;;;;;;;;;;;;;;;;5114600;28;20078;-83
2021/12/16 04:29:40;;;;;;;;;;;;;;;;;;5114333;28;20058;-83
2021/12/16 04:32:07;;;;;;;;;;;;;;;;;;5114408;28;20471;-82
2021/12/16 04:34:34;;;;;;;;;;;;;;;;;;5114600;28;20046;-83
2021/12/16 04:37:01;;;;;;;;;;;;;;;;;;5114586;28;20034;-82
2021/12/16 04:39:28;;;;;;;;;;;;;;;;;;5114735;28;19999;-83
2021/12/16 04:41:55;;;;;;;;;;;;;;;;;;5114296;28;20004;-83
2021/12/16 04:44:22;;;;;;;;;;;;;;;;;;5113977;28;19950;-83
2021/12/16 04:46:49;;;;;;;;;;;;;;;;;;5114435;28;20033;-83
2021/12/16 04:49:16;;;;;;;;;;;;;;;;;;5114302;28;20008;-82
2021/12/16 04:51:43;;;;;;;;;;;;;;;;;;5114056;28;20052;-83
2021/12/16 04:54:10;;;;;;;;;;;;;;;;;;5113952;28;20469;-82
2021/12/16 04:56:37;;;;;;;;;;;;;;;;;;5114022;28;19987;-83
2021/12/16 04:59:08;;;;;;;;;;;;;;;;;;5113857;28;20034;-83
2021/12/16 05:01:35;;;;;;;;;;;;;;;;;;5114067;28;19950;-83
2021/12/16 05:04:03;;;;;;;;;;;;;;;;;;5113848;28;20056;-82
2021/12/16 05:06:32;;;;;;;;;;;;;;;;;;5113497;28;19941;-82
2021/12/16 05:09:01;;;;;;;;;;;;;;;;;;5113127;28;20038;-82
2021/12/16 05:11:28;;;;;;;;;;;;;;;;;;5113557;28;19968;-83
2021/12/16 05:13:57;;;;;;;;;;;;;;;;;;5113388;28;19950;-82
2021/12/16 05:16:24;;;;;;;;;;;;;;;;;;5113478;28;20032;-81
2021/12/16 05:18:53;;;;;;;;;;;;;;;;;;5113233;28;19988;-82
2021/12/16 05:21:40;;;;;;;;;;;;;;;;;;5113213;28;20385;-82
2021/12/16 05:24:16;;;;;;;;;;;;;;;;;;5112906;28;19960;-82
2021/12/16 05:26:43;;;;;;;;;;;;;;;;;;5113485;28;19945;-81
2021/12/16 05:29:10;;;;;;;;;;;;;;;;;;5113342;28;20498;-82
2021/12/16 05:31:37;;;;;;;;;;;;;;;;;;5113131;28;20427;-81
2021/12/16 05:34:04;;;;;;;;;;;;;;;;;;5113740;28;20058;-82
2021/12/16 05:36:31;;;;;;;;;;;;;;;;;;5113433;28;20138;-82
2021/12/16 05:38:58;;;;;;;;;;;;;;;;;;5113746;28;19997;-82
2021/12/16 05:41:25;;;;;;;;;;;;;;;;;;5113664;28;19953;-82
2021/12/16 05:43:52;;;;;;;;;;;;;;;;;;5113781;28;20032;-82
2021/12/16 05:46:19;;;;;;;;;;;;;;;;;;5113641;28;20054;-82
2021/12/16 05:48:46;;;;;;;;;;;;;;;;;;5113668;28;20035;-82
2021/12/16 05:51:13;;;;;;;;;;;;;;;;;;5111940;28;20483;-81
2021/12/16 05:53:40;;;;;;;;;;;;;;;;;;5113394;28;20399;-81
2021/12/16 05:56:07;;;;;;;;;;;;;;;;;;5114743;28;20029;-82
2021/12/16 05:58:34;;;;;;;;;;;;;;;;;;5117117;28;20033;-82
2021/12/16 06:01:01;;;;;;;;;;;;;;;;;;5117464;28;20001;-82
2021/12/16 06:03:28;;;;;;;;;;;;;;;;;;5117187;28;20358;-82
2021/12/16 06:05:55;;;;;;;;;;;;;;;;;;5117368;28;20041;-82
2021/12/16 06:08:22;;;;;;;;;;;;;;;;;;5117175;28;20007;-81
2021/12/16 06:13:42;;;;;;;;;;;;;;;;;;5100974;28;20044;-81
2021/12/16 06:27:09;;;;;;;;;;;;;;;;;;5082515;28;20350;-82
2021/12/16 06:29:36;;;;;;;;;;;;;;;;;;5116506;28;20310;-82
2021/12/16 06:32:03;;;;;;;;;;;;;;;;;;5116630;28;20055;-81
2021/12/16 06:34:30;;;;;;;;;;;;;;;;;;5116773;28;20031;-82
2021/12/16 06:36:58;;;;;;;;;;;;;;;;;;5116551;28;20046;-82
2021/12/16 06:39:25;;;;;;;;;;;;;;;;;;5116584;28;19949;-82
2021/12/16 06:41:52;;;;;;;;;;;;;;;;;;5116435;28;20480;-81
2021/12/16 06:44:23;;;;;;;;;;;;;;;;;;5116579;28;20032;-82
2021/12/16 06:46:53;;;;;;;;;;;;;;;;;;5116363;28;20002;-82
2021/12/16 06:49:21;;;;;;;;;;;;;;;;;;5116066;28;19951;-82
2021/12/16 06:51:52;;;;;;;;;;;;;;;;;;5116213;28;20332;-81
2021/12/16 06:54:25;;;;;;;;;;;;;;;;;;5116268;28;19959;-82
2021/12/16 06:57:01;;;;;;;;;;;;;;;;;;5116265;28;19954;-82
2021/12/16 06:59:31;;;;;;;;;;;;;;;;;;5116007;28;20052;-82
2021/12/16 07:02:07;;;;;;;;;;;;;;;;;;5116024;28;19958;-82
2021/12/16 07:04:34;;;;;;;;;;;;;;;;;;5116274;28;19959;-82
2021/12/16 07:07:01;;;;;;;;;;;;;;;;;;5115985;28;20160;-82
2021/12/16 07:09:28;;;;;;;;;;;;;;;;;;5115633;28;20035;-82
2021/12/16 07:11:57;;;;;;;;;;;;;;;;;;5115397;28;19965;-81
2021/12/16 07:14:34;;;;;;;;;;;;;;;;;;5115664;28;20278;-81
2021/12/16 07:17:01;;;;;;;;;;;;;;;;;;5116011;28;19955;-81
2021/12/16 07:19:28;;;;;;;;;;;;;;;;;;5115607;28;20065;-82
2021/12/16 07:21:55;;;;;;;;;;;;;;;;;;5115655;28;19989;-82
2021/12/16 07:24:22;;;;;;;;;;;;;;;;;;5115711;28;20051;-82
2021/12/16 07:26:50;;;;;;;;;;;;;;;;;;5115289;28;20468;-82
2021/12/16 07:29:17;;;;;;;;;;;;;;;;;;5115587;28;20056;-82
2021/12/16 07:31:44;;;;;;;;;;;;;;;;;;5115281;28;20073;-83
2021/12/16 07:34:10;;;;;;;;;;;;;;;;;;5115480;28;20400;-82
2021/12/16 07:36:37;;;;;;;;;;;;;;;;;;5115492;28;20041;-82
2021/12/16 07:39:04;;;;;;;;;;;;;;;;;;5115431;27;20040;-83
2021/12/16 07:41:33;;;;;;;;;;;;;;;;;;5115172;28;20060;-83
2021/12/16 07:44:09;;;;;;;;;;;;;;;;;;5115285;28;20034;-84
2021/12/16 07:46:36;;;;;;;;;;;;;;;;;;5114465;28;19940;-84
2021/12/16 07:49:03;;;;;;;;;;;;;;;;;;5114190;28;20484;-84
2021/12/16 07:51:30;;;;;;;;;;;;;;;;;;5114502;28;20057;-82
2021/12/16 07:53:57;;;;;;;;;;;;;;;;;;5114853;28;20032;-82
2021/12/16 07:56:24;;;;;;;;;;;;;;;;;;5114277;28;20047;-81
2021/12/16 07:58:51;;;;;;;;;;;;;;;;;;5114827;28;19930;-84
2021/12/16 08:01:18;;;;;;;;;;;;;;;;;;5114564;28;20009;-83
2021/12/16 08:03:45;;;;;;;;;;;;;;;;;;5114669;28;20392;-85
2021/12/16 08:06:12;;;;;;;;;;;;;;;;;;5104021;28;19957;-86
2021/12/16 08:08:39;;;;;;;;;;;;;;;;;;5114750;28;20013;-83
2021/12/16 08:11:06;;;;;;;;;;;;;;;;;;5114147;28;20056;-84
2021/12/16 08:13:33;;;;;;;;;;;;;;;;;;5111859;28;20042;-84
2021/12/16 08:16:01;;;;;;;;;;;;;;;;;;5111305;28;20000;-84
2021/12/16 08:18:28;;;;;;;;;;;;;;;;;;5113997;28;20460;-85
2021/12/16 08:20:55;;;;;;;;;;;;;;;;;;5114297;28;19995;-85
2021/12/16 08:23:22;;;;;;;;;;;;;;;;;;5115425;28;20037;-84
2021/12/16 08:25:49;;;;;;;;;;;;;;;;;;5114570;28;20010;-84
2021/12/16 08:28:16;;;;;;;;;;;;;;;;;;5114442;28;20454;-85
2021/12/16 08:30:43;;;;;;;;;;;;;;;;;;5114846;28;20016;-84
2021/12/16 08:33:12;;;;;;;;;;;;;;;;;;5114514;28;20001;-84
2021/12/16 08:35:40;;;;;;;;;;;;;;;;;;5114309;28;19995;-84
2021/12/16 08:38:07;;;;;;;;;;;;;;;;;;5114286;28;20326;-84
2021/12/16 08:40:34;;;;;;;;;;;;;;;;;;5114414;28;20048;-85
2021/12/16 08:43:01;;;;;;;;;;;;;;;;;;5114219;28;19981;-84
2021/12/16 08:45:28;;;;;;;;;;;;;;;;;;5113273;28;20050;-84
2021/12/16 08:47:55;;;;;;;;;;;;;;;;;;5113829;28;20035;-84
2021/12/16 08:50:23;;;;;;;;;;;;;;;;;;5112216;28;20031;-84
2021/12/16 08:52:50;;;;;;;;;;;;;;;;;;5108108;28;19959;-84
2021/12/16 08:55:17;;;;;;;;;;;;;;;;;;5112085;28;20037;-84
2021/12/16 08:57:44;;;;;;;;;;;;;;;;;;5114150;28;20055;-84
2021/12/16 09:00:11;;;;;;;;;;;;;;;;;;5113506;28;20053;-84
2021/12/16 09:02:38;;;;;;;;;;;;;;;;;;5113694;28;20052;-84
2021/12/16 09:05:05;;;;;;;;;;;;;;;;;;5113736;28;20379;-85
2021/12/16 09:07:32;;;;;;;;;;;;;;;;;;5114022;28;19990;-86
2021/12/16 09:09:59;;;;;;;;;;;;;;;;;;5113572;28;20067;-84
2021/12/16 09:12:51;;;;;;;;;;;;;;;;;;5113754;28;20070;-83
2021/12/16 09:15:18;;;;;;;;;;;;;;;;;;5113701;28;20427;-84
2021/12/16 09:17:45;;;;;;;;;;;;;;;;;;5114262;28;20028;-83
2021/12/16 09:20:12;;;;;;;;;;;;;;;;;;5113740;28;20040;-84
2021/12/16 09:22:40;;;;;;;;;;;;;;;;;;5113499;28;19996;-83
2021/12/16 09:25:07;;;;;;;;;;;;;;;;;;5113487;28;20354;-83
2021/12/16 09:27:34;;;;;;;;;;;;;;;;;;5113504;28;19956;-83
2021/12/16 09:30:01;;;;;;;;;;;;;;;;;;5113768;28;20046;-83
2021/12/16 09:32:30;;;;;;;;;;;;;;;;;;5116461;28;20027;-85
2021/12/16 09:34:57;;;;;;;;;;;;;;;;;;5118068;28;19951;-84
2021/12/16 09:37:24;;;;;;;;;;;;;;;;;;5117702;28;20044;-84
2021/12/16 09:39:51;;;;;;;;;;;;;;;;;;5117229;28;20047;-84
2021/12/16 09:42:18;;;;;;;;;;;;;;;;;;5117519;28;19989;-84
2021/12/16 09:44:45;;;;;;;;;;;;;;;;;;5117996;28;20070;-84
2021/12/16 09:47:12;;;;;;;;;;;;;;;;;;5117769;28;20042;-84
2021/12/16 09:49:39;;;;;;;;;;;;;;;;;;5117651;28;20039;-83
2021/12/16 09:52:06;;;;;;;;;;;;;;;;;;5117243;28;20402;-83
2021/12/16 09:54:33;;;;;;;;;;;;;;;;;;5117377;28;20036;-84
2021/12/16 09:57:00;;;;;;;;;;;;;;;;;;5117259;28;20053;-84
2021/12/16 09:59:27;;;;;;;;;;;;;;;;;;5117285;28;20056;-85
2021/12/16 10:01:54;;;;;;;;;;;;;;;;;;5117490;28;20045;-84
2021/12/16 10:04:23;;;;;;;;;;;;;;;;;;5117241;28;20047;-84
2021/12/16 10:06:50;;;;;;;;;;;;;;;;;;5117302;28;20047;-84
2021/12/16 10:09:17;;;;;;;;;;;;;;;;;;5116915;28;20007;-84
2021/12/16 10:11:44;;;;;;;;;;;;;;;;;;5117201;28;19972;-84
2021/12/16 10:14:30;;;;;;;;;;;;;;;;;;5117042;28;19958;-84
2021/12/16 10:19:41;;;;;;;;;;;;;;;;;;5116904;28;19937;-84
2021/12/16 10:22:08;;;;;;;;;;;;;;;;;;5117202;28;19994;-84
2021/12/16 10:24:35;;;;;;;;;;;;;;;;;;5116847;28;19982;-84
2021/12/16 10:27:02;;;;;;;;;;;;;;;;;;5116678;28;19985;-85
2021/12/16 10:29:29;;;;;;;;;;;;;;;;;;5116712;28;19992;-84
2021/12/16 10:31:56;;;;;;;;;;;;;;;;;;5116689;28;20064;-84
2021/12/16 10:34:24;;;;;;;;;;;;;;;;;;5115887;28;20430;-85
2021/12/16 10:36:51;;;;;;;;;;;;;;;;;;5116772;28;19947;-84
2021/12/16 10:39:18;;;;;;;;;;;;;;;;;;5116267;28;19952;-84
2021/12/16 10:41:46;;;;;;;;;;;;;;;;;;5115588;28;20396;-84
2021/12/16 10:44:14;;;;;;;;;;;;;;;;;;5116109;28;19978;-84
2021/12/16 10:46:41;;;;;;;;;;;;;;;;;;5116455;28;19956;-84
2021/12/16 10:49:08;;;;;;;;;;;;;;;;;;5116356;28;20031;-84
2021/12/16 10:51:35;;;;;;;;;;;;;;;;;;5116263;28;20074;-84
2021/12/16 10:54:02;;;;;;;;;;;;;;;;;;5116171;28;19998;-84
2021/12/16 10:56:29;;;;;;;;;;;;;;;;;;5116170;28;19946;-84
2021/12/16 10:58:56;;;;;;;;;;;;;;;;;;5116102;28;19998;-84
2021/12/16 11:01:22;;;;;;;;;;;;;;;;;;5116100;28;20403;-84
2021/12/16 11:03:49;;;;;;;;;;;;;;;;;;5116263;28;20172;-84
2021/12/16 11:06:16;;;;;;;;;;;;;;;;;;5116211;28;20054;-85
2021/12/16 11:08:43;;;;;;;;;;;;;;;;;;5115776;28;20036;-84
2021/12/16 11:11:12;;;;;;;;;;;;;;;;;;5116175;28;20385;-84
2021/12/16 11:13:39;;;;;;;;;;;;;;;;;;5115716;27;19946;-84
2021/12/16 11:16:06;;;;;;;;;;;;;;;;;;5115816;28;19956;-84
2021/12/16 11:18:34;;;;;;;;;;;;;;;;;;5115750;28;19993;-84
2021/12/16 11:21:01;;;;;;;;;;;;;;;;;;5115715;28;20320;-84
2021/12/16 11:23:28;;;;;;;;;;;;;;;;;;5115735;28;19989;-84
2021/12/16 11:25:55;;;;;;;;;;;;;;;;;;5115455;28;19983;-84
2021/12/16 11:28:22;;;;;;;;;;;;;;;;;;5115228;28;20469;-84
2021/12/16 11:30:49;;;;;;;;;;;;;;;;;;5115528;28;20041;-84
2021/12/16 11:33:16;;;;;;;;;;;;;;;;;;5115511;28;20014;-84
2021/12/16 11:35:43;;;;;;;;;;;;;;;;;;5113724;28;20448;-84
2021/12/16 11:38:13;;;;;;;;;;;;;;;;;;5113888;28;20038;-84
2021/12/16 11:40:40;;;;;;;;;;;;;;;;;;5114953;28;19972;-84
2021/12/16 11:43:07;;;;;;;;;;;;;;;;;;5111893;28;19989;-83
2021/12/16 11:45:34;;;;;;;;;;;;;;;;;;5115320;28;20061;-83
2021/12/16 11:48:01;;;;;;;;;;;;;;;;;;5115295;28;20059;-84
2021/12/16 11:50:28;;;;;;;;;;;;;;;;;;5115154;28;20130;-84
2021/12/16 11:52:56;;;;;;;;;;;;;;;;;;5114636;28;20081;-84
2021/12/16 11:55:23;;;;;;;;;;;;;;;;;;5114307;28;20053;-84
2021/12/16 11:57:51;;;;;;;;;;;;;;;;;;5114947;28;20063;-84
2021/12/16 12:00:18;;;;;;;;;;;;;;;;;;5114823;28;19945;-84
2021/12/16 12:02:45;;;;;;;;;;;;;;;;;;5114607;28;20049;-84
2021/12/16 12:05:12;;;;;;;;;;;;;;;;;;5114763;28;20051;-84
2021/12/16 12:07:39;;;;;;;;;;;;;;;;;;5114786;28;20393;-84
2021/12/16 12:10:06;;;;;;;;;;;;;;;;;;5114769;28;20061;-84
2021/12/16 12:12:33;;;;;;;;;;;;;;;;;;5114814;28;20063;-84
2021/12/16 12:15:00;;;;;;;;;;;;;;;;;;5114747;28;20061;-84
2021/12/16 12:17:27;;;;;;;;;;;;;;;;;;5114565;28;20074;-84
2021/12/16 12:19:53;;;;;;;;;;;;;;;;;;5114184;28;20467;-84
2021/12/16 12:22:20;;;;;;;;;;;;;;;;;;5114530;28;19990;-84
2021/12/16 12:24:47;;;;;;;;;;;;;;;;;;5113711;28;20034;-84
2021/12/16 12:27:14;;;;;;;;;;;;;;;;;;5114352;28;20005;-84
2021/12/16 12:29:41;;;;;;;;;;;;;;;;;;5114190;28;20034;-84
2021/12/16 12:32:08;;;;;;;;;;;;;;;;;;5114301;28;20065;-84
2021/12/16 12:34:35;;;;;;;;;;;;;;;;;;5113454;28;20357;-84
2021/12/16 12:37:02;;;;;;;;;;;;;;;;;;5113762;28;20011;-84
2021/12/16 12:39:29;;;;;;;;;;;;;;;;;;5114039;28;19962;-84
2021/12/16 12:41:56;;;;;;;;;;;;;;;;;;5114019;28;19947;-83
2021/12/16 12:44:23;;;;;;;;;;;;;;;;;;5114282;28;19995;-84
2021/12/16 12:46:50;;;;;;;;;;;;;;;;;;5113553;28;19953;-84
2021/12/16 12:49:19;;;;;;;;;;;;;;;;;;5114148;28;20024;-84
2021/12/16 12:51:48;;;;;;;;;;;;;;;;;;5113592;28;19958;-84
2021/12/16 12:54:16;;;;;;;;;;;;;;;;;;5113788;28;19948;-83
2021/12/16 12:56:43;;;;;;;;;;;;;;;;;;5093486;28;19952;-84
2021/12/16 12:59:12;;;;;;;;;;;;;;;;;;5093655;28;19990;-84
2021/12/16 13:01:40;;;;;;;;;;;;;;;;;;5113063;28;19948;-84
2021/12/16 13:04:07;;;;;;;;;;;;;;;;;;5113729;28;19956;-84
2021/12/16 13:06:34;;;;;;;;;;;;;;;;;;5113112;28;20009;-83
2021/12/16 13:09:03;;;;;;;;;;;;;;;;;;5113288;28;19974;-85
2021/12/16 13:11:30;;;;;;;;;;;;;;;;;;5113612;28;20399;-84
2021/12/16 13:14:02;;;;;;;;;;;;;;;;;;5114124;28;19987;-86
2021/12/16 13:16:54;;;;;;;;;;;;;;;;;;5113817;28;20327;-85
2021/12/16 13:25:14;;;;;;;;;;;;;;;;;;5113573;28;20037;-86
2021/12/16 13:27:44;;;;;;;;;;;;;;;;;;5112555;28;19948;-87
2021/12/16 13:30:20;;;;;;;;;;;;;;;;;;5112677;28;20022;-85
2021/12/16 13:32:49;;;;;;;;;;;;;;;;;;5112940;28;19963;-86
2021/12/16 13:35:32;;;;;;;;;;;;;;;;;;5113535;28;19999;-85
2021/12/16 13:37:59;;;;;;;;;;;;;;;;;;5113830;28;19995;-86
2021/12/16 13:40:29;;;;;;;;;;;;;;;;;;5113078;28;20042;-85
2021/12/16 13:42:58;;;;;;;;;;;;;;;;;;5113218;28;20329;-85
2021/12/16 13:45:30;;;;;;;;;;;;;;;;;;5113387;28;19949;-85
2021/12/16 13:59:49;;;;;;;;;;;;;;;;;;5092992;28;20423;-86
2021/12/16 14:01:57;;;;;;;;;;;;;;;;;;5112045;28;19987;-87
2021/12/16 14:04:41;;;;;;;;;;;;;;;;;;5113286;28;19954;-87
2021/12/16 14:07:27;;;;;;;;;;;;;;;;;;5099622;28;19977;-86
2021/12/16 14:10:01;;;;;;;;;;;;;;;;;;5112800;28;19976;-87
2021/12/16 14:15:28;;;;;;;;;;;;;;;;;;5050200;28;19941;-87
2021/12/16 14:18:01;;;;;;;;;;;;;;;;;;5052564;28;19948;-86
2021/12/16 14:23:16;;;;;;;;;;;;;;;;;;5096705;28;20373;-87
2021/12/16 14:26:07;;;;;;;;;;;;;;;;;;5101167;28;19966;-86
2021/12/16 14:31:50;;;;;;;;;;;;;;;;;;5116372;28;19939;-86
2021/12/16 14:34:52;;;;;;;;;;;;;;;;;;5116229;28;19953;-87
2021/12/16 14:37:30;;;;;;;;;;;;;;;;;;5104023;28;19947;-89
2021/12/16 14:40:13;;;;;;;;;;;;;;;;;;5116427;28;20037;-87
2021/12/16 14:42:49;;;;;;;;;;;;;;;;;;5116308;28;19950;-87
2021/12/16 14:45:28;;;;;;;;;;;;;;;;;;5116167;28;20421;-87
2021/12/16 14:48:25;;;;;;;;;;;;;;;;;;5116093;28;19952;-86
2021/12/16 14:50:54;;;;;;;;;;;;;;;;;;5115713;28;19949;-86
2021/12/16 14:53:23;;;;;;;;;;;;;;;;;;5115295;28;20025;-86
2021/12/16 14:55:52;;;;;;;;;;;;;;;;;;5115868;28;20414;-87
2021/12/16 14:58:22;;;;;;;;;;;;;;;;;;5095583;28;20342;-87
2021/12/16 15:00:51;;;;;;;;;;;;;;;;;;5115668;27;19955;-86
2021/12/16 15:03:21;;;;;;;;;;;;;;;;;;5123917;27;19948;-86
2021/12/16 15:05:49;;;;;;;;;;;;;;;;;;5115137;28;19954;-86
2021/12/16 15:08:24;;;;;;;;;;;;;;;;;;5115494;28;20008;-86
2021/12/16 15:10:53;;;;;;;;;;;;;;;;;;5115000;28;19968;-86
2021/12/16 15:13:35;;;;;;;;;;;;;;;;;;5115636;28;19978;-85
2021/12/16 15:16:19;;;;;;;;;;;;;;;;;;5114639;28;20443;-86
2021/12/16 15:38:19;;;;;;;;;;;;;;;;;;5111420;28;19953;-85
2021/12/16 15:42:44;;;;;;;;;;;;;;;;;;5092788;28;20493;-85
2021/12/16 15:43:54;;;;;;;;;;;;;;;;;;5098952;28;20466;-86
2021/12/16 15:46:23;;;;;;;;;;;;;;;;;;5107773;28;19950;-85
2021/12/16 15:48:51;;;;;;;;;;;;;;;;;;5114767;28;19951;-86
2021/12/16 15:51:20;;;;;;;;;;;;;;;;;;5114476;28;19994;-86
2021/12/16 15:53:51;;;;;;;;;;;;;;;;;;5114657;28;19974;-86
2021/12/16 15:56:21;;;;;;;;;;;;;;;;;;5114303;28;19944;-86
2021/12/16 15:58:50;;;;;;;;;;;;;;;;;;5114341;28;19965;-86
2021/12/16 16:01:20;;;;;;;;;;;;;;;;;;5114089;28;19957;-85
2021/12/16 16:03:49;;;;;;;;;;;;;;;;;;5094712;28;19944;-85
2021/12/16 16:06:18;;;;;;;;;;;;;;;;;;5112283;28;19950;-85
2021/12/16 16:08:48;;;;;;;;;;;;;;;;;;5114572;28;20400;-86
2021/12/16 16:11:17;;;;;;;;;;;;;;;;;;5114010;28;19948;-85
2021/12/16 16:13:48;;;;;;;;;;;;;;;;;;5114534;28;19971;-86
2021/12/16 16:16:17;;;;;;;;;;;;;;;;;;5114942;28;20394;-86
2021/12/16 16:18:55;;;;;;;;;;;;;;;;;;5114417;28;19950;-86
2021/12/16 16:21:24;;;;;;;;;;;;;;;;;;5114066;28;19994;-86
2021/12/16 16:23:54;;;;;;;;;;;;;;;;;;5113724;28;19945;-86
2021/12/16 16:26:23;;;;;;;;;;;;;;;;;;5114236;28;19992;-86
2021/12/16 16:28:53;;;;;;;;;;;;;;;;;;5114847;28;20032;-86
2021/12/16 16:31:21;;;;;;;;;;;;;;;;;;5113435;28;19947;-86
2021/12/16 16:33:50;;;;;;;;;;;;;;;;;;5113766;28;19972;-86
2021/12/16 16:36:19;;;;;;;;;;;;;;;;;;5114365;28;19976;-86
2021/12/16 16:38:48;;;;;;;;;;;;;;;;;;5113486;28;19946;-87
2021/12/16 16:41:17;;;;;;;;;;;;;;;;;;5113734;28;20050;-86
2021/12/16 16:43:45;;;;;;;;;;;;;;;;;;5113911;28;19958;-86
2021/12/16 16:46:19;;;;;;;;;;;;;;;;;;5114013;28;19947;-85
2021/12/16 16:49:03;;;;;;;;;;;;;;;;;;5094528;28;19951;-86
2021/12/16 16:51:32;;;;;;;;;;;;;;;;;;5113185;28;19953;-85
2021/12/16 16:54:01;;;;;;;;;;;;;;;;;;5113104;28;19992;-86
2021/12/16 16:56:31;;;;;;;;;;;;;;;;;;5113765;28;19950;-86
2021/12/16 16:59:03;;;;;;;;;;;;;;;;;;5113995;28;19958;-86
2021/12/16 17:01:35;;;;;;;;;;;;;;;;;;5114058;28;19952;-86
2021/12/16 17:04:02;;;;;;;;;;;;;;;;;;5113788;28;20317;-87
2021/12/16 17:06:30;;;;;;;;;;;;;;;;;;5114165;28;20031;-86
2021/12/16 17:08:57;;;;;;;;;;;;;;;;;;5113759;28;19985;-87
2021/12/16 17:11:25;;;;;;;;;;;;;;;;;;5113545;28;20428;-86
2021/12/16 17:13:59;;;;;;;;;;;;;;;;;;5113774;28;19975;-87
2021/12/16 17:19:10;;;;;;;;;;;;;;;;;;5113835;28;19943;-86
2021/12/16 17:21:37;;;;;;;;;;;;;;;;;;5113788;28;20044;-86
2021/12/16 17:24:04;;;;;;;;;;;;;;;;;;5113663;28;20498;-86
2021/12/16 17:26:31;;;;;;;;;;;;;;;;;;5113721;28;20036;-86
2021/12/16 17:28:58;;;;;;;;;;;;;;;;;;5113707;28;20005;-86
2021/12/16 17:31:25;;;;;;;;;;;;;;;;;;5113562;28;20049;-86
2021/12/16 17:33:52;;;;;;;;;;;;;;;;;;5129478;28;20056;-86
2021/12/16 17:36:19;;;;;;;;;;;;;;;;;;5113496;28;20434;-86
2021/12/16 17:38:46;;;;;;;;;;;;;;;;;;5113867;28;20057;-86
2021/12/16 17:41:13;;;;;;;;;;;;;;;;;;5113316;28;20041;-85
2021/12/16 17:43:40;;;;;;;;;;;;;;;;;;5113893;28;20005;-84
2021/12/16 17:46:07;;;;;;;;;;;;;;;;;;5113518;28;20048;-84
2021/12/16 17:48:34;;;;;;;;;;;;;;;;;;5113734;28;20043;-85
2021/12/16 17:51:01;;;;;;;;;;;;;;;;;;5113390;28;20031;-85
2021/12/16 17:53:28;;;;;;;;;;;;;;;;;;5116348;28;20058;-85
2021/12/16 17:55:55;;;;;;;;;;;;;;;;;;5115751;28;20067;-85
2021/12/16 17:58:23;;;;;;;;;;;;;;;;;;5117344;28;20036;-85
2021/12/16 18:00:50;;;;;;;;;;;;;;;;;;5117764;28;19951;-85
2021/12/16 18:03:17;;;;;;;;;;;;;;;;;;5117442;28;20045;-85
2021/12/16 18:05:44;;;;;;;;;;;;;;;;;;5116583;28;20044;-85
2021/12/16 18:08:11;;;;;;;;;;;;;;;;;;5117164;28;20422;-85
2021/12/16 18:10:37;;;;;;;;;;;;;;;;;;5116694;28;20007;-85
2021/12/16 18:13:04;;;;;;;;;;;;;;;;;;5116785;28;20062;-85
2021/12/16 18:15:32;;;;;;;;;;;;;;;;;;5116796;28;20038;-85
2021/12/16 18:17:59;;;;;;;;;;;;;;;;;;5116637;28;20397;-85
2021/12/16 18:20:26;;;;;;;;;;;;;;;;;;5116697;28;20368;-85
2021/12/16 18:22:53;;;;;;;;;;;;;;;;;;5118823;27;19988;-85
2021/12/16 18:25:20;;;;;;;;;;;;;;;;;;5116793;28;20035;-86
2021/12/16 18:27:47;;;;;;;;;;;;;;;;;;5117006;28;20037;-85
2021/12/16 18:30:14;;;;;;;;;;;;;;;;;;5114198;28;20234;-85
2021/12/16 18:32:41;;;;;;;;;;;;;;;;;;5116288;28;19974;-84
2021/12/16 18:35:08;;;;;;;;;;;;;;;;;;5116308;28;19977;-85
2021/12/16 18:37:35;;;;;;;;;;;;;;;;;;5115648;28;20484;-85
2021/12/16 18:40:02;;;;;;;;;;;;;;;;;;5116163;28;20042;-85
2021/12/16 18:42:29;;;;;;;;;;;;;;;;;;5116012;28;20051;-85
2021/12/16 18:44:56;;;;;;;;;;;;;;;;;;5115950;28;20312;-85
2021/12/16 18:47:28;;;;;;;;;;;;;;;;;;5115011;28;20401;-85
2021/12/16 18:49:59;;;;;;;;;;;;;;;;;;5113345;28;19953;-85
2021/12/16 18:52:30;;;;;;;;;;;;;;;;;;5116074;28;19949;-85
2021/12/16 18:54:56;;;;;;;;;;;;;;;;;;5116042;28;20016;-84
2021/12/16 18:57:23;;;;;;;;;;;;;;;;;;5116057;28;19949;-85
2021/12/16 18:59:51;;;;;;;;;;;;;;;;;;5115826;28;20036;-85
2021/12/16 19:02:19;;;;;;;;;;;;;;;;;;5115586;28;19954;-85
2021/12/16 19:04:46;;;;;;;;;;;;;;;;;;5115413;28;19947;-85
2021/12/16 19:07:14;;;;;;;;;;;;;;;;;;5115818;28;20026;-85
2021/12/16 19:09:41;;;;;;;;;;;;;;;;;;5115538;28;19958;-85
2021/12/16 19:12:08;;;;;;;;;;;;;;;;;;5112562;28;20036;-85
2021/12/16 19:14:35;;;;;;;;;;;;;;;;;;5115964;28;20050;-85
2021/12/16 19:17:02;;;;;;;;;;;;;;;;;;5113074;28;19960;-84
2021/12/16 19:19:29;;;;;;;;;;;;;;;;;;5115333;28;19949;-85
2021/12/16 19:21:56;;;;;;;;;;;;;;;;;;5114628;28;19952;-85
2021/12/16 19:24:23;;;;;;;;;;;;;;;;;;5115699;28;20067;-85
2021/12/16 19:26:50;;;;;;;;;;;;;;;;;;5115614;28;20050;-85
2021/12/16 19:29:17;;;;;;;;;;;;;;;;;;5106137;28;19992;-85
2021/12/16 19:31:44;;;;;;;;;;;;;;;;;;5108584;28;20038;-85
2021/12/16 19:34:11;;;;;;;;;;;;;;;;;;5115624;28;19983;-85
2021/12/16 19:36:38;;;;;;;;;;;;;;;;;;5115644;27;20062;-84